Time;durP1;ratioP1;P1;durP2;ratioP2;P2;SDS_P1;SDS_P2;PMS_P1;PMS_P2;Temp;Humidity;BMP_temperature;BMP_pressure;BME280_temperature;BME280_humidity;BME280_pressure;Samples;Min_cycle;Max_cycle;Signal;HPM_P1;HPM_P2
2023/10/29 00:01:33;;;;;;;;;;;11.90;99.90;;;11.43;100.00;96134.13;4985111;28;1544;-73
2023/10/29 00:04:00;;;;;;;;;;;11.90;99.90;;;11.50;100.00;96123.19;4981689;28;1007;-73
2023/10/29 00:06:27;;;;;;;;;;;11.90;99.90;;;11.51;100.00;96131.81;4986684;28;1220;-73
2023/10/29 00:08:54;;;;;;;;;;;11.90;99.90;;;11.53;100.00;96135.16;4982930;28;1417;-73
2023/10/29 00:11:21;;;;;;;;;;;11.90;99.90;;;11.63;100.00;96132.72;4984962;28;1373;-73
2023/10/29 00:13:48;;;;;;;;;;;11.90;99.90;;;11.51;100.00;96131.81;4981776;28;1513;-72
2023/10/29 00:16:15;;;;;;;;;;;12.00;99.90;;;11.45;100.00;96127.91;4981030;28;1538;-73
2023/10/29 00:18:43;;;;;;;;;;;11.90;99.90;;;11.54;100.00;96131.63;4984812;28;1906;-73
2023/10/29 00:21:11;;;;;;;;;;;11.90;99.90;;;11.54;100.00;96136.81;4987033;28;1405;-73
2023/10/29 00:23:39;;;;;;;;;;;11.90;99.90;;;11.62;100.00;96128.47;4979580;28;1396;-73
2023/10/29 00:26:05;;;;;;;;;;;12.00;99.90;;;11.52;100.00;96131.72;4981640;28;1442;-73
2023/10/29 00:28:33;;;;;;;;;;;12.00;99.90;;;11.62;100.00;96136.28;4970490;28;1414;-73
2023/10/29 00:31:00;;;;;;;;;;;12.00;99.90;;;11.61;100.00;96138.06;4979769;28;1507;-73
2023/10/29 00:33:27;;;;;;;;;;;12.00;99.90;;;11.61;100.00;96142.41;4984511;28;1467;-73
2023/10/29 00:35:54;;;;;;;;;;;12.00;99.90;;;11.70;100.00;96147.81;4967213;28;1667;-73
2023/10/29 00:38:21;;;;;;;;;;;12.10;99.90;;;11.68;100.00;96149.69;4981861;28;1993;-73
2023/10/29 00:40:48;;;;;;;;;;;12.00;99.90;;;11.68;100.00;96154.88;4980347;28;1422;-73
2023/10/29 00:43:18;;;;;;;;;;;12.00;99.90;;;11.65;100.00;96157.66;4980674;28;1442;-73
2023/10/29 00:45:51;;;;;;;;;;;12.00;99.90;;;11.55;100.00;96158.44;4966584;28;1314;-73
2023/10/29 00:48:19;;;;;;;;;;;12.00;99.90;;;11.46;100.00;96144.31;4982949;28;1744;-73
2023/10/29 00:50:46;;;;;;;;;;;12.00;99.90;;;11.48;100.00;96130.28;4984038;28;1438;-73
2023/10/29 00:53:13;;;;;;;;;;;12.00;99.90;;;11.40;100.00;96129.13;4982273;28;1612;-73
2023/10/29 00:55:40;;;;;;;;;;;11.90;99.90;;;11.49;100.00;96139.75;4967496;28;1393;-72
2023/10/29 00:58:07;;;;;;;;;;;11.90;99.90;;;11.45;100.00;96122.69;4984534;28;1986;-73
2023/10/29 01:00:34;;;;;;;;;;;11.90;99.90;;;11.44;100.00;96128.00;4981137;28;1553;-73
2023/10/29 01:03:01;;;;;;;;;;;11.90;99.90;;;11.60;100.00;96133.78;4984523;28;1367;-72
2023/10/29 01:05:28;;;;;;;;;;;12.00;99.90;;;11.65;100.00;96123.88;4985586;28;1468;-73
2023/10/29 01:07:57;;;;;;;;;;;12.00;99.90;;;11.66;100.00;96116.94;4986915;28;1448;-73
2023/10/29 01:10:24;;;;;;;;;;;12.00;99.90;;;11.49;100.00;96108.56;4985403;28;1356;-73
2023/10/29 01:12:51;;;;;;;;;;;12.00;99.90;;;11.69;100.00;96095.94;4980394;28;1410;-72
2023/10/29 01:15:18;;;;;;;;;;;12.10;99.90;;;11.65;100.00;96090.09;4983364;28;2099;-73
2023/10/29 01:17:45;;;;;;;;;;;12.10;99.90;;;11.71;100.00;96081.06;4969429;28;1989;-73
2023/10/29 01:20:12;;;;;;;;;;;12.10;99.90;;;11.66;100.00;96077.97;4969906;28;1454;-73
2023/10/29 01:22:39;;;;;;;;;;;12.10;99.90;;;11.70;100.00;96074.22;4985081;28;1586;-72
2023/10/29 01:25:09;;;;;;;;;;;12.10;99.90;;;11.86;100.00;96050.50;4970705;28;1463;-72
2023/10/29 01:27:37;;;;;;;;;;;12.10;99.90;;;11.90;100.00;96054.59;4992128;28;1436;-72
2023/10/29 01:30:07;;;;;;;;;;;12.20;99.90;;;11.93;100.00;96047.41;4987437;28;1314;-73
2023/10/29 01:32:34;;;;;;;;;;;12.30;99.90;;;11.85;100.00;96041.88;4986263;28;1389;-73
2023/10/29 01:35:02;;;;;;;;;;;12.30;99.90;;;11.87;100.00;96028.78;4987719;28;1260;-73
2023/10/29 01:37:29;;;;;;;;;;;12.30;99.90;;;11.89;100.00;96013.94;4971181;28;1437;-73
2023/10/29 01:39:56;;;;;;;;;;;12.30;99.90;;;11.83;100.00;96028.16;4983218;28;2144;-73
2023/10/29 01:42:23;;;;;;;;;;;12.20;99.90;;;12.01;100.00;96017.41;4983219;28;1465;-72
2023/10/29 01:44:50;;;;;;;;;;;12.30;99.90;;;11.81;100.00;96030.06;4986339;28;1571;-73
2023/10/29 01:47:17;;;;;;;;;;;12.40;99.90;;;11.81;100.00;96024.84;4985436;28;1523;-73
2023/10/29 01:49:44;;;;;;;;;;;12.30;99.90;;;11.84;100.00;96050.66;4985339;28;1804;-73
2023/10/29 01:52:11;;;;;;;;;;;12.30;99.90;;;11.96;100.00;96048.13;4984919;28;1538;-73
2023/10/29 01:54:38;;;;;;;;;;;12.40;99.90;;;11.92;100.00;96031.91;4970705;28;1409;-73
2023/10/29 01:57:06;;;;;;;;;;;12.30;99.90;;;12.22;100.00;96028.81;4985439;28;1692;-73
2023/10/29 01:59:33;;;;;;;;;;;12.50;99.90;;;12.24;100.00;96036.53;4985021;28;1968;-73
2023/10/29 02:02:00;;;;;;;;;;;12.60;99.90;;;12.39;100.00;96034.56;4984191;28;1464;-73
2023/10/29 02:04:27;;;;;;;;;;;12.70;99.90;;;12.30;100.00;96031.69;4986110;28;1926;-73
2023/10/29 02:06:54;;;;;;;;;;;12.70;99.90;;;12.30;100.00;96041.28;4985298;28;1546;-74
2023/10/29 02:09:21;;;;;;;;;;;12.70;99.90;;;12.38;100.00;96033.72;4983889;28;1516;-74
2023/10/29 02:11:48;;;;;;;;;;;12.70;99.90;;;12.25;100.00;96025.19;4985379;28;1496;-74
2023/10/29 02:14:15;;;;;;;;;;;12.70;99.90;;;12.28;100.00;96023.19;4988696;28;1397;-73
2023/10/29 02:16:43;;;;;;;;;;;;;;;12.41;100.00;96038.72;4983855;28;1450;-74
2023/10/29 02:19:10;;;;;;;;;;;12.80;99.90;;;12.44;100.00;96027.25;4981845;28;1972;-73
2023/10/29 02:21:37;;;;;;;;;;;12.80;99.90;;;12.42;100.00;96024.75;4999491;28;1619;-73
2023/10/29 02:24:04;;;;;;;;;;;12.90;99.90;;;12.40;100.00;96024.03;4987520;28;1422;-73
2023/10/29 02:26:31;;;;;;;;;;;12.80;99.90;;;12.39;100.00;96019.78;4985619;28;1408;-73
2023/10/29 02:28:58;;;;;;;;;;;12.80;99.90;;;12.52;100.00;96017.06;4987200;28;1471;-73
2023/10/29 02:31:25;;;;;;;;;;;12.90;99.90;;;12.51;100.00;96013.66;4987311;28;1654;-73
2023/10/29 02:33:53;;;;;;;;;;;13.00;99.90;;;12.53;100.00;96013.53;4986177;28;1507;-73
2023/10/29 02:36:20;;;;;;;;;;;13.00;99.90;;;12.53;100.00;96018.75;4986560;28;1509;-73
2023/10/29 02:38:47;;;;;;;;;;;12.90;99.90;;;12.48;100.00;96018.28;4986717;28;1902;-74
2023/10/29 02:41:14;;;;;;;;;;;13.00;99.90;;;12.54;100.00;96007.38;4984783;28;1430;-72
2023/10/29 02:43:43;;;;;;;;;;;13.00;99.90;;;12.58;100.00;96005.38;4973040;28;1336;-72
2023/10/29 02:46:10;;;;;;;;;;;13.00;99.90;;;12.54;100.00;96015.19;4983862;28;1337;-73
2023/10/29 02:48:38;;;;;;;;;;;13.00;99.90;;;12.55;100.00;96015.09;4959311;28;1646;-73
2023/10/29 02:51:10;;;;;;;;;;;13.00;99.90;;;12.60;100.00;96013.91;4982915;28;1412;-73
2023/10/29 02:53:37;;;;;;;;;;;13.00;99.90;;;12.60;100.00;96019.94;4987095;28;1619;-74
2023/10/29 02:56:04;;;;;;;;;;;13.00;99.90;;;12.64;100.00;96013.56;4983735;28;1842;-73
2023/10/29 02:58:31;;;;;;;;;;;13.10;99.90;;;12.70;100.00;96017.47;4982870;28;2015;-74
2023/10/29 03:01:08;;;;;;;;;;;13.10;99.90;;;12.76;100.00;96024.81;4982778;28;1264;-74
2023/10/29 03:03:36;;;;;;;;;;;13.10;99.90;;;12.75;100.00;96030.97;4984171;28;1122;-74
2023/10/29 03:06:05;;;;;;;;;;;13.20;99.90;;;12.75;100.00;96033.59;4999437;28;1449;-74
2023/10/29 03:08:33;;;;;;;;;;;13.20;99.90;;;12.67;100.00;96041.97;4969784;28;1583;-73
2023/10/29 03:11:00;;;;;;;;;;;13.20;99.90;;;12.61;100.00;96058.03;4981423;28;1411;-74
2023/10/29 03:13:27;;;;;;;;;;;13.10;99.90;;;12.44;100.00;96054.09;4981756;28;1656;-74
2023/10/29 03:15:55;;;;;;;;;;;13.00;99.90;;;12.21;100.00;96061.00;4983175;28;1623;-74
2023/10/29 03:18:22;;;;;;;;;;;12.80;99.90;;;11.98;100.00;96057.47;4983831;28;1992;-75
2023/10/29 03:20:49;;;;;;;;;;;12.60;99.90;;;11.82;100.00;96067.31;4984976;28;1427;-75
2023/10/29 03:23:16;;;;;;;;;;;12.40;99.90;;;11.71;100.00;96075.84;4987715;28;1449;-74
2023/10/29 03:25:44;;;;;;;;;;;12.30;99.90;;;11.84;100.00;96088.81;4972069;28;1480;-74
2023/10/29 03:28:12;;;;;;;;;;;12.30;99.90;;;11.72;100.00;96077.50;4984460;28;1616;-74
2023/10/29 03:30:39;;;;;;;;;;;12.30;99.90;;;11.68;100.00;96092.50;4985047;28;1459;-73
2023/10/29 03:33:06;;;;;;;;;;;12.20;99.90;;;11.64;100.00;96088.44;4983986;28;1202;-73
2023/10/29 03:35:33;;;;;;;;;;;12.20;99.90;;;11.64;100.00;96095.44;4985839;28;1519;-73
2023/10/29 03:38:00;;;;;;;;;;;12.20;99.90;;;11.61;100.00;96101.66;4981169;28;1710;-73
2023/10/29 03:40:27;;;;;;;;;;;12.20;99.90;;;11.70;100.00;96090.63;4984140;28;1985;-73
2023/10/29 03:42:54;;;;;;;;;;;12.10;99.90;;;11.81;100.00;96097.63;4986004;28;1378;-73
2023/10/29 03:45:21;;;;;;;;;;;12.20;99.90;;;11.85;100.00;96082.66;4982099;28;1404;-73
2023/10/29 03:47:49;;;;;;;;;;;12.30;99.90;;;11.80;100.00;96090.78;4984219;28;1374;-74
2023/10/29 03:50:19;;;;;;;;;;;12.30;99.90;;;11.80;100.00;96093.41;4982521;28;1575;-74
2023/10/29 03:52:46;;;;;;;;;;;12.30;99.90;;;11.66;100.00;96091.78;4983026;28;1361;-72
2023/10/29 03:55:13;;;;;;;;;;;12.20;99.90;;;11.76;100.00;96094.53;4984193;28;1366;-73
2023/10/29 03:57:40;;;;;;;;;;;12.20;99.90;;;11.70;100.00;96103.63;4986434;28;1444;-73
2023/10/29 04:00:09;;;;;;;;;;;12.20;99.90;;;11.72;100.00;96096.56;4983781;28;1930;-73
2023/10/29 04:02:36;;;;;;;;;;;12.20;99.90;;;11.61;100.00;96109.47;4996105;28;1443;-74
2023/10/29 04:05:03;;;;;;;;;;;12.20;99.90;;;11.59;100.00;96131.31;4970662;28;1222;-74
2023/10/29 04:07:36;;;;;;;;;;;12.10;99.90;;;11.71;100.00;96139.06;4982079;28;1403;-74
2023/10/29 04:10:04;;;;;;;;;;;12.10;99.90;;;11.63;100.00;96137.94;4967649;28;1409;-74
2023/10/29 04:12:32;;;;;;;;;;;12.10;99.90;;;11.66;100.00;96138.56;4985359;28;1491;-73
2023/10/29 04:14:59;;;;;;;;;;;12.10;99.90;;;11.46;100.00;96157.31;4983915;28;1502;-74
2023/10/29 04:17:26;;;;;;;;;;;12.00;99.90;;;11.39;100.00;96130.09;4982046;28;1454;-75
2023/10/29 04:19:54;;;;;;;;;;;11.90;99.90;;;11.37;100.00;96145.78;4989826;28;1903;-74
2023/10/29 04:22:22;;;;;;;;;;;11.90;99.90;;;11.51;100.00;96166.44;4981500;28;1436;-74
2023/10/29 04:24:50;;;;;;;;;;;11.90;99.90;;;11.39;100.00;96158.66;4987311;28;1364;-74
2023/10/29 04:27:17;;;;;;;;;;;11.80;99.90;;;11.40;100.00;96157.72;4985721;28;1414;-74
2023/10/29 04:29:44;;;;;;;;;;;11.80;99.90;;;11.41;100.00;96170.59;4984242;28;1404;-74
2023/10/29 04:32:12;;;;;;;;;;;11.80;99.90;;;11.38;100.00;96164.78;4980099;28;1290;-75
2023/10/29 04:34:39;;;;;;;;;;;11.70;99.90;;;11.34;100.00;96152.97;4984017;28;1555;-74
2023/10/29 04:37:06;;;;;;;;;;;11.70;99.90;;;11.41;100.00;96156.78;4983804;28;1468;-74
2023/10/29 04:39:33;;;;;;;;;;;11.80;99.90;;;11.36;100.00;96138.94;4984183;28;1993;-74
2023/10/29 04:42:01;;;;;;;;;;;11.70;99.90;;;11.35;100.00;96149.41;4986341;28;1386;-74
2023/10/29 04:44:28;;;;;;;;;;;11.70;99.90;;;11.38;100.00;96133.59;4982917;28;1416;-73
2023/10/29 04:46:55;;;;;;;;;;;11.70;99.90;;;11.44;100.00;96148.78;4998229;28;1740;-73
2023/10/29 04:49:23;;;;;;;;;;;11.70;99.90;;;11.38;100.00;96138.78;4983924;28;1767;-74
2023/10/29 04:51:50;;;;;;;;;;;11.80;99.90;;;11.44;100.00;96147.00;4989062;28;1611;-74
2023/10/29 04:54:17;;;;;;;;;;;11.80;99.90;;;11.56;100.00;96145.31;4984674;28;1269;-74
2023/10/29 04:56:44;;;;;;;;;;;11.80;99.90;;;11.54;100.00;96159.34;4988741;28;1990;-74
2023/10/29 04:59:11;;;;;;;;;;;11.80;99.90;;;11.63;100.00;96153.53;4987267;28;1986;-74
2023/10/29 05:01:38;;;;;;;;;;;11.90;99.90;;;11.53;100.00;96155.94;4985944;28;1423;-73
2023/10/29 05:04:05;;;;;;;;;;;11.90;99.90;;;11.48;100.00;96155.44;4990931;28;1669;-74
2023/10/29 05:06:33;;;;;;;;;;;11.90;99.90;;;11.54;100.00;96175.81;4988680;28;1463;-74
2023/10/29 05:08:59;;;;;;;;;;;11.80;99.90;;;11.50;100.00;96166.56;4993323;28;1434;-73
2023/10/29 05:11:26;;;;;;;;;;;11.90;99.90;;;11.49;100.00;96159.69;4974933;28;1410;-74
2023/10/29 05:13:53;;;;;;;;;;;11.80;99.90;;;11.50;100.00;96156.97;4986367;28;1504;-75
2023/10/29 05:16:21;;;;;;;;;;;11.80;99.90;;;11.41;100.00;96129.03;4990742;28;1416;-75
2023/10/29 05:18:48;;;;;;;;;;;11.80;99.90;;;11.45;100.00;96132.28;4981706;28;1969;-74
2023/10/29 05:21:15;;;;;;;;;;;11.80;99.90;;;11.50;100.00;96130.19;4989188;28;1398;-75
2023/10/29 05:23:42;;;;;;;;;;;11.80;99.90;;;11.50;100.00;96141.41;4987335;28;1272;-74
2023/10/29 05:26:09;;;;;;;;;;;11.80;99.90;;;11.59;100.00;96149.50;4988797;28;1332;-74
2023/10/29 05:28:36;;;;;;;;;;;11.80;99.90;;;11.51;100.00;96143.03;4984691;28;1664;-74
2023/10/29 05:31:03;;;;;;;;;;;11.80;99.90;;;11.55;100.00;96148.03;4988389;28;1400;-74
2023/10/29 05:33:30;;;;;;;;;;;11.80;99.90;;;11.47;100.00;96156.34;4982866;28;1417;-74
2023/10/29 05:35:58;;;;;;;;;;;11.80;99.90;;;11.48;100.00;96147.63;4989226;28;1310;-75
2023/10/29 05:38:25;;;;;;;;;;;11.80;99.90;;;11.49;100.00;96167.47;4984928;28;1953;-75
2023/10/29 05:40:51;;;;;;;;;;;11.80;99.90;;;11.54;100.00;96164.56;4986628;28;1981;-75
2023/10/29 05:43:18;;;;;;;;;;;11.80;99.90;;;11.52;100.00;96168.09;4986263;28;1351;-75
2023/10/29 05:45:45;;;;;;;;;;;11.80;99.90;;;11.59;100.00;96180.69;4986399;28;1582;-75
2023/10/29 05:48:12;;;;;;;;;;;11.80;99.90;;;11.51;100.00;96173.41;4989201;28;1462;-75
2023/10/29 05:50:40;;;;;;;;;;;11.80;99.90;;;11.51;100.00;96178.59;4987144;28;1891;-75
2023/10/29 05:53:07;;;;;;;;;;;11.80;99.90;;;11.53;100.00;96171.53;4985011;28;1400;-75
2023/10/29 05:55:35;;;;;;;;;;;11.80;99.90;;;11.54;100.00;96185.34;4972520;28;1483;-75
2023/10/29 05:58:03;;;;;;;;;;;11.70;99.90;;;11.48;100.00;96189.22;5001072;28;1190;-75
2023/10/29 06:00:29;;;;;;;;;;;11.80;99.90;;;11.47;100.00;96188.38;4985366;28;1974;-75
2023/10/29 06:02:56;;;;;;;;;;;11.80;99.90;;;11.48;100.00;96174.44;4986119;28;1589;-74
2023/10/29 06:05:24;;;;;;;;;;;11.80;99.90;;;11.55;100.00;96184.44;4988828;28;1391;-75
2023/10/29 06:07:51;;;;;;;;;;;11.90;99.90;;;11.59;100.00;96175.50;4986494;28;1379;-74
2023/10/29 06:10:18;;;;;;;;;;;11.90;99.90;;;11.52;100.00;96183.69;5001628;28;1408;-75
2023/10/29 06:12:45;;;;;;;;;;;11.80;99.90;;;11.51;100.00;96156.03;4967592;28;1515;-75
2023/10/29 06:15:13;;;;;;;;;;;11.90;99.90;;;11.57;100.00;96164.38;4988935;28;1448;-75
2023/10/29 06:17:42;;;;;;;;;;;11.80;99.90;;;11.58;100.00;96159.03;4983521;28;1442;-75
2023/10/29 06:20:11;;;;;;;;;;;11.80;99.90;;;11.62;100.00;96146.69;4983811;28;1906;-74
2023/10/29 06:22:38;;;;;;;;;;;11.80;99.90;;;11.63;100.00;96133.59;4985842;28;1268;-74
2023/10/29 06:25:05;;;;;;;;;;;11.90;99.90;;;11.66;100.00;96127.34;4985795;28;1407;-74
2023/10/29 06:27:33;;;;;;;;;;;11.90;99.90;;;11.70;100.00;96129.63;4987407;28;1410;-74
2023/10/29 06:30:00;;;;;;;;;;;11.90;99.90;;;11.68;100.00;96123.69;4986016;28;1482;-74
2023/10/29 06:32:27;;;;;;;;;;;11.90;99.90;;;11.69;100.00;96116.72;4981730;28;1653;-74
2023/10/29 06:34:55;;;;;;;;;;;11.90;99.90;;;11.68;100.00;96107.28;4988562;28;1522;-74
2023/10/29 06:37:22;;;;;;;;;;;11.90;99.90;;;11.71;100.00;96118.25;4983498;28;1552;-74
2023/10/29 06:39:49;;;;;;;;;;;12.00;99.90;;;11.69;100.00;96133.13;4984339;28;1910;-73
2023/10/29 06:42:16;;;;;;;;;;;12.00;99.90;;;11.73;100.00;96144.97;4988902;28;1374;-73
2023/10/29 06:44:43;;;;;;;;;;;12.00;99.90;;;11.78;100.00;96141.25;4988574;28;1395;-73
2023/10/29 06:47:10;;;;;;;;;;;12.00;99.90;;;11.78;100.00;96143.84;4981159;28;1455;-73
2023/10/29 06:49:37;;;;;;;;;;;12.00;99.90;;;11.75;100.00;96144.88;4986477;28;1430;-73
2023/10/29 06:52:04;;;;;;;;;;;12.00;99.90;;;11.81;100.00;96139.25;4985138;28;1403;-73
2023/10/29 06:54:31;;;;;;;;;;;12.00;99.90;;;11.79;100.00;96138.53;4986181;28;1780;-73
2023/10/29 06:56:58;;;;;;;;;;;12.00;99.90;;;11.77;100.00;96137.81;4985855;28;1757;-72
2023/10/29 06:59:28;;;;;;;;;;;12.10;99.90;;;11.80;100.00;96132.38;4983575;28;1898;-73
2023/10/29 07:01:57;;;;;;;;;;;12.00;99.90;;;11.86;100.00;96149.31;4979802;28;1446;-73
2023/10/29 07:04:23;;;;;;;;;;;12.10;99.90;;;11.83;100.00;96152.97;4985186;28;1380;-73
2023/10/29 07:06:52;;;;;;;;;;;12.10;99.90;;;11.89;100.00;96157.78;4993825;28;1445;-73
2023/10/29 07:09:18;;;;;;;;;;;12.10;99.90;;;11.92;100.00;96170.53;4986506;28;1448;-73
2023/10/29 07:11:46;;;;;;;;;;;12.10;99.90;;;11.85;100.00;96158.88;4980910;28;1411;-73
2023/10/29 07:14:13;;;;;;;;;;;12.10;99.90;;;11.88;100.00;96174.31;4985519;28;1456;-73
2023/10/29 07:16:47;;;;;;;;;;;12.10;99.90;;;11.86;100.00;96134.56;4985058;28;1483;-73
2023/10/29 07:19:16;;;;;;;;;;;12.20;99.90;;;11.85;100.00;96127.69;4984739;28;1993;-73
2023/10/29 07:21:44;;;;;;;;;;;12.20;99.90;;;11.89;100.00;96104.94;4986651;28;1459;-73
2023/10/29 07:24:11;;;;;;;;;;;12.20;99.90;;;11.96;100.00;96116.56;4986370;28;1330;-73
2023/10/29 07:26:38;;;;;;;;;;;12.10;99.90;;;11.95;100.00;96119.25;4986584;28;1583;-73
2023/10/29 07:29:05;;;;;;;;;;;12.20;99.90;;;11.99;100.00;96115.50;4982562;28;1316;-74
2023/10/29 07:31:49;;;;;;;;;;;12.20;99.90;;;12.04;100.00;96116.00;4987348;28;1430;-72
2023/10/29 07:34:16;;;;;;;;;;;12.20;99.90;;;12.06;100.00;96109.75;4985641;28;1367;-73
2023/10/29 07:36:46;;;;;;;;;;;12.30;99.90;;;12.09;100.00;96108.72;4982291;28;1828;-73
2023/10/29 07:39:13;;;;;;;;;;;12.30;99.90;;;12.05;100.00;96105.50;4970789;28;1985;-73
2023/10/29 07:41:40;;;;;;;;;;;12.30;99.90;;;12.14;100.00;96104.00;4984926;28;1392;-73
2023/10/29 07:44:07;;;;;;;;;;;12.40;99.90;;;12.07;100.00;96082.81;4985123;28;1487;-73
2023/10/29 07:46:34;;;;;;;;;;;12.40;99.90;;;12.09;100.00;96078.34;4982206;28;1484;-73
2023/10/29 07:49:02;;;;;;;;;;;12.40;99.90;;;12.16;100.00;96114.28;5000096;28;1827;-73
2023/10/29 07:51:29;;;;;;;;;;;12.40;99.90;;;12.14;100.00;96109.22;4986576;28;1756;-73
2023/10/29 07:53:56;;;;;;;;;;;12.40;99.90;;;12.21;100.00;96127.81;4996822;28;1622;-73
2023/10/29 07:56:26;;;;;;;;;;;12.40;99.90;;;12.10;100.00;96113.78;4985787;28;1410;-73
2023/10/29 07:58:53;;;;;;;;;;;12.40;99.90;;;12.18;100.00;96107.19;4964828;28;1390;-73
2023/10/29 08:01:20;;;;;;;;;;;12.40;99.90;;;12.22;100.00;96095.63;4984244;28;1958;-72
2023/10/29 08:03:48;;;;;;;;;;;12.40;99.90;;;12.27;100.00;96106.53;4985274;28;1209;-73
2023/10/29 08:06:15;;;;;;;;;;;12.40;99.90;;;12.27;100.00;96120.41;4985038;28;1396;-73
2023/10/29 08:08:45;;;;;;;;;;;12.50;99.90;;;12.22;100.00;96113.84;4981650;28;1482;-73
2023/10/29 08:11:19;;;;;;;;;;;12.40;99.90;;;12.26;100.00;96118.72;4983330;28;1408;-73
2023/10/29 08:13:47;;;;;;;;;;;12.50;99.90;;;12.17;100.00;96108.97;4986886;28;1050;-74
2023/10/29 08:16:14;;;;;;;;;;;12.50;99.90;;;12.23;100.00;96098.13;4983674;28;1446;-73
2023/10/29 08:18:41;;;;;;;;;;;12.50;99.90;;;12.23;100.00;96129.34;4979796;28;1466;-73
2023/10/29 08:21:09;;;;;;;;;;;12.50;99.90;;;12.25;100.00;96117.06;4997263;28;1910;-73
2023/10/29 08:23:36;;;;;;;;;;;12.50;99.90;;;12.30;100.00;96119.34;4987152;28;1378;-73
2023/10/29 08:26:03;;;;;;;;;;;12.50;99.90;;;12.35;100.00;96122.44;4987452;28;1256;-73
2023/10/29 08:28:30;;;;;;;;;;;12.50;99.90;;;12.40;100.00;96115.09;4981728;28;1515;-73
2023/10/29 08:30:58;;;;;;;;;;;12.60;99.90;;;12.43;100.00;96127.91;4987084;28;1400;-73
2023/10/29 08:33:26;;;;;;;;;;;12.50;99.90;;;12.44;100.00;96134.75;4987849;28;1386;-73
2023/10/29 08:35:53;;;;;;;;;;;12.60;99.90;;;12.45;100.00;96126.03;4990722;28;1118;-73
2023/10/29 08:38:21;;;;;;;;;;;12.70;99.90;;;12.37;100.00;96125.75;4989027;28;1430;-73
2023/10/29 08:40:48;;;;;;;;;;;12.60;99.90;;;12.34;100.00;96133.78;4986381;28;1910;-73
2023/10/29 08:43:15;;;;;;;;;;;12.60;99.90;;;12.35;100.00;96138.03;4990534;28;1747;-73
2023/10/29 08:45:43;;;;;;;;;;;12.60;99.90;;;12.36;100.00;96147.50;4984922;28;1404;-73
2023/10/29 08:48:10;;;;;;;;;;;12.60;99.90;;;12.36;100.00;96142.28;4987855;28;1567;-73
2023/10/29 08:50:38;;;;;;;;;;;12.60;99.90;;;12.51;100.00;96153.38;4973002;28;1403;-73
2023/10/29 08:53:06;;;;;;;;;;;12.60;99.90;;;12.37;100.00;96149.16;4984945;28;1511;-72
2023/10/29 08:55:36;;;;;;;;;;;12.60;99.90;;;12.29;100.00;96173.16;4985653;28;1531;-73
2023/10/29 08:58:03;;;;;;;;;;;12.60;99.90;;;12.36;100.00;96191.72;4985658;28;1326;-73
2023/10/29 09:00:32;;;;;;;;;;;12.60;99.90;;;12.29;100.00;96188.75;4985651;28;2013;-74
2023/10/29 09:03:13;;;;;;;;;;;12.60;99.90;;;12.19;100.00;96195.53;4986701;28;1410;-74
2023/10/29 09:05:41;;;;;;;;;;;12.60;99.90;;;12.24;100.00;96216.03;4987154;28;1463;-74
2023/10/29 09:08:09;;;;;;;;;;;12.50;99.90;;;12.22;100.00;96210.09;4986984;28;1507;-74
2023/10/29 09:10:41;;;;;;;;;;;12.50;99.90;;;12.17;100.00;96220.00;4982955;28;1384;-74
2023/10/29 09:13:09;;;;;;;;;;;12.40;99.90;;;12.21;100.00;96192.84;4982629;28;1582;-74
2023/10/29 09:15:37;;;;;;;;;;;12.40;99.90;;;12.21;100.00;96183.25;4987649;28;1536;-75
2023/10/29 09:18:04;;;;;;;;;;;12.40;99.90;;;12.20;100.00;96193.78;5003658;28;1402;-74
2023/10/29 09:20:32;;;;;;;;;;;12.40;99.90;;;12.27;100.00;96208.84;4988770;28;2008;-75
2023/10/29 09:22:59;;;;;;;;;;;12.40;99.90;;;12.17;100.00;96191.41;4988311;28;1396;-75
2023/10/29 09:25:27;;;;;;;;;;;12.40;99.90;;;12.20;100.00;96193.78;4984322;28;1366;-75
2023/10/29 09:27:54;;;;;;;;;;;12.40;99.90;;;12.16;100.00;96197.53;4986142;28;1499;-75
2023/10/29 09:30:21;;;;;;;;;;;12.40;99.90;;;12.12;100.00;96173.50;4987318;28;1401;-74
2023/10/29 09:32:48;;;;;;;;;;;12.30;99.90;;;12.09;100.00;96169.38;4987462;28;1374;-74
2023/10/29 09:35:16;;;;;;;;;;;12.40;99.90;;;12.07;100.00;96181.66;4999955;28;1640;-75
2023/10/29 09:37:43;;;;;;;;;;;12.30;99.90;;;12.06;100.00;96195.56;4983737;28;1722;-74
2023/10/29 09:40:13;;;;;;;;;;;12.30;99.90;;;12.05;100.00;96186.13;4971829;28;2013;-73
2023/10/29 09:42:46;;;;;;;;;;;12.30;99.90;;;11.95;100.00;96181.66;4990037;28;1496;-74
2023/10/29 09:45:15;;;;;;;;;;;12.20;99.90;;;11.97;100.00;96203.19;4985348;28;1508;-74
2023/10/29 09:47:43;;;;;;;;;;;12.20;99.90;;;12.00;100.00;96203.81;4979583;28;1375;-73
2023/10/29 09:50:11;;;;;;;;;;;12.20;99.90;;;11.97;100.00;96191.03;4984085;28;1609;-74
2023/10/29 09:52:38;;;;;;;;;;;12.30;99.90;;;11.88;100.00;96191.66;4983191;28;1736;-75
2023/10/29 09:55:07;;;;;;;;;;;12.20;99.90;;;11.92;100.00;96206.13;4982867;28;1406;-74
2023/10/29 09:57:34;;;;;;;;;;;12.20;99.90;;;11.84;100.00;96216.22;4983205;28;1531;-75
2023/10/29 10:00:02;;;;;;;;;;;12.20;99.90;;;11.91;100.00;96166.28;4985927;28;1981;-74
2023/10/29 10:02:29;;;;;;;;;;;12.20;99.90;;;11.88;100.00;96178.66;4967493;28;1477;-74
2023/10/29 10:04:56;;;;;;;;;;;12.10;99.90;;;11.83;100.00;96194.56;4970300;28;1635;-74
2023/10/29 10:07:25;;;;;;;;;;;12.10;99.90;;;11.82;100.00;96197.28;4982764;28;1505;-75
2023/10/29 10:09:56;;;;;;;;;;;12.10;99.90;;;11.75;100.00;96212.47;4983005;28;1609;-74
2023/10/29 10:12:25;;;;;;;;;;;12.00;99.90;;;11.79;100.00;96205.28;4982741;28;1579;-75
2023/10/29 10:14:53;;;;;;;;;;;12.00;99.90;;;11.66;100.00;96206.13;4986969;28;1539;-75
2023/10/29 10:17:20;;;;;;;;;;;12.00;99.90;;;11.71;100.00;96190.22;4986871;28;1412;-76
2023/10/29 10:19:48;;;;;;;;;;;12.00;99.90;;;11.76;100.00;96182.94;4983275;28;1557;-76
2023/10/29 10:22:33;;;;;;;;;;;11.90;99.90;;;11.81;100.00;96193.81;4980948;28;1968;-74
2023/10/29 10:25:00;;;;;;;;;;;11.90;99.90;;;11.77;100.00;96195.00;4985307;28;1455;-77
2023/10/29 10:27:27;;;;;;;;;;;11.90;99.90;;;11.70;100.00;96191.16;4969616;28;1497;-75
2023/10/29 10:29:54;;;;;;;;;;;11.90;99.90;;;11.83;100.00;96196.34;4984951;28;1321;-75
2023/10/29 10:32:25;;;;;;;;;;;12.00;99.90;;;11.67;100.00;96187.00;4971687;28;1430;-75
2023/10/29 10:34:54;;;;;;;;;;;11.90;99.90;;;11.76;100.00;96184.69;4983833;28;1520;-75
2023/10/29 10:37:24;;;;;;;;;;;12.00;99.90;;;11.72;100.00;96177.13;4982408;28;1383;-75
2023/10/29 10:39:51;;;;;;;;;;;12.00;99.90;;;11.80;100.00;96181.78;4983819;28;1490;-75
2023/10/29 10:42:23;;;;;;;;;;;11.90;99.90;;;11.70;100.00;96166.00;4983873;28;1906;-75
2023/10/29 10:44:53;;;;;;;;;;;11.90;99.90;;;11.68;100.00;96167.88;4987525;28;1439;-75
2023/10/29 10:47:21;;;;;;;;;;;11.90;99.90;;;11.81;100.00;96167.84;4983218;28;1657;-76
2023/10/29 10:49:49;;;;;;;;;;;11.90;99.90;;;11.72;100.00;96171.94;4985062;28;1559;-73
2023/10/29 10:52:16;;;;;;;;;;;11.90;99.90;;;11.66;100.00;96181.91;4984578;28;1464;-74
2023/10/29 10:54:43;;;;;;;;;;;11.90;99.90;;;11.60;100.00;96190.13;4983157;28;1648;-75
2023/10/29 10:57:10;;;;;;;;;;;11.90;99.90;;;11.67;100.00;96186.16;4985949;28;1473;-76
2023/10/29 10:59:39;;;;;;;;;;;11.90;99.90;;;11.62;100.00;96170.06;4984305;28;1694;-75
2023/10/29 11:02:07;;;;;;;;;;;11.90;99.90;;;11.79;100.00;96169.72;4982097;28;1981;-75
2023/10/29 11:04:34;;;;;;;;;;;11.90;99.90;;;11.72;100.00;96179.72;4984792;28;1763;-76
2023/10/29 11:07:02;;;;;;;;;;;11.90;99.90;;;11.73;100.00;96176.19;4985326;28;1659;-75
2023/10/29 11:09:29;;;;;;;;;;;11.90;99.90;;;11.70;100.00;96172.97;4984110;28;1567;-74
2023/10/29 11:11:57;;;;;;;;;;;11.90;99.90;;;11.77;100.00;96170.75;4983340;28;1555;-75
2023/10/29 11:14:25;;;;;;;;;;;11.90;99.90;;;11.83;100.00;96163.34;4985293;28;1487;-75
2023/10/29 11:16:55;;;;;;;;;;;12.00;99.90;;;11.73;100.00;96155.38;4996690;28;1701;-75
2023/10/29 11:19:49;;;;;;;;;;;11.90;99.90;;;11.84;100.00;96157.25;4980635;28;1478;-75